createdAt,value
2023-02-24T00:02:00.294Z,20.48
2023-02-24T00:04:33.324Z,20.40
2023-02-24T00:07:02.518Z,17.35
2023-02-24T00:09:33.226Z,18.50
2023-02-24T00:12:04.789Z,16.23
2023-02-24T00:14:34.661Z,13.02
2023-02-24T00:17:08.022Z,11.68
2023-02-24T00:19:38.920Z,10.88
2023-02-24T00:22:09.521Z,10.50
2023-02-24T00:24:38.165Z,10.45
2023-02-24T00:27:11.074Z,9.70
2023-02-24T00:29:40.355Z,10.48
2023-02-24T00:32:12.625Z,11.05
2023-02-24T00:34:43.543Z,9.43
2023-02-24T00:37:12.118Z,10.38
2023-02-24T00:39:41.485Z,10.27
2023-02-24T00:42:12.121Z,10.88
2023-02-24T00:44:45.086Z,11.48
2023-02-24T00:47:14.200Z,10.18
2023-02-24T00:49:44.288Z,11.07
2023-02-24T00:52:14.586Z,9.18
2023-02-24T00:54:47.635Z,11.88
2023-02-24T00:57:21.422Z,11.75
2023-02-24T00:59:51.699Z,11.80
2023-02-24T01:02:20.363Z,12.65
2023-02-24T01:04:51.052Z,12.80
2023-02-24T01:07:19.446Z,11.20
2023-02-24T01:09:51.770Z,13.98
2023-02-24T01:12:40.102Z,13.00
2023-02-24T01:15:12.695Z,11.90
2023-02-24T01:17:41.114Z,13.40
2023-02-24T01:20:18.434Z,14.27
2023-02-24T01:22:48.736Z,11.48
2023-02-24T01:25:20.037Z,14.25
2023-02-24T01:27:48.407Z,15.07
2023-02-24T01:30:18.328Z,15.93
2023-02-24T01:32:48.088Z,15.20
2023-02-24T01:35:18.681Z,13.43
2023-02-24T01:37:46.896Z,15.52
2023-02-24T01:40:21.489Z,17.90
2023-02-24T01:42:50.602Z,14.93
2023-02-24T01:45:29.646Z,13.57
2023-02-24T01:48:01.686Z,15.02
2023-02-24T01:50:34.132Z,15.27
2023-02-24T01:53:05.779Z,14.02
2023-02-24T01:55:36.902Z,15.23
2023-02-24T01:58:09.701Z,15.25
2023-02-24T02:00:38.916Z,14.10
2023-02-24T02:03:15.428Z,12.82
2023-02-24T02:05:48.746Z,13.63
2023-02-24T02:08:19.578Z,12.82
2023-02-24T02:10:48.830Z,13.38
2023-02-24T02:13:24.024Z,11.68
2023-02-24T02:16:02.867Z,12.88
2023-02-24T02:18:42.945Z,12.48
2023-02-24T02:21:56.289Z,11.73
2023-02-24T02:24:35.775Z,11.52
2023-02-24T02:27:30.049Z,11.20
2023-02-24T02:30:28.794Z,11.43
2023-02-24T02:33:33.752Z,11.43
2023-02-24T02:36:14.296Z,10.93
2023-02-24T02:38:52.724Z,11.45
2023-02-24T02:41:28.517Z,13.00
2023-02-24T02:44:07.447Z,10.82
2023-02-24T02:46:42.334Z,9.25
2023-02-24T02:49:19.042Z,10.90
2023-02-24T02:51:52.748Z,10.40
2023-02-24T02:54:28.273Z,12.90
2023-02-24T02:57:03.811Z,11.73
2023-02-24T02:59:35.346Z,12.40
2023-02-24T03:02:14.940Z,11.63
2023-02-24T03:04:51.643Z,12.70
2023-02-24T03:07:31.076Z,14.13
2023-02-24T03:10:04.401Z,13.80
2023-02-24T03:12:37.283Z,13.93
2023-02-24T03:15:11.700Z,14.80
2023-02-24T03:17:45.359Z,15.63
2023-02-24T03:20:22.002Z,13.88
2023-02-24T03:22:57.752Z,15.93
2023-02-24T03:25:30.181Z,16.58
2023-02-24T03:28:05.795Z,15.68
2023-02-24T03:30:41.801Z,16.17
2023-02-24T03:33:16.721Z,16.58
2023-02-24T03:35:46.416Z,15.43
2023-02-24T03:38:19.674Z,16.42
2023-02-24T03:40:48.273Z,16.92
2023-02-24T03:43:27.897Z,16.17
2023-02-24T03:45:57.923Z,17.30
2023-02-24T03:48:27.944Z,16.83
2023-02-24T03:51:00.512Z,18.02
2023-02-24T03:54:01.449Z,17.92
2023-02-24T03:56:40.933Z,17.20
2023-02-24T03:59:23.744Z,15.75
2023-02-24T04:01:58.009Z,15.98
2023-02-24T04:04:37.183Z,17.52
2023-02-24T04:07:19.081Z,16.50
2023-02-24T04:09:59.254Z,18.85
2023-02-24T04:12:31.399Z,17.15
2023-02-24T04:15:10.375Z,18.40
2023-02-24T04:17:44.719Z,16.45
2023-02-24T04:20:18.884Z,17.30
2023-02-24T04:22:54.956Z,18.60
2023-02-24T04:25:27.559Z,15.77
2023-02-24T04:28:00.647Z,16.00
2023-02-24T04:30:35.214Z,14.15
2023-02-24T04:33:04.441Z,12.25
2023-02-24T04:35:33.065Z,13.23
2023-02-24T04:38:02.219Z,12.20
2023-02-24T04:40:33.038Z,10.82
2023-02-24T04:43:01.315Z,12.60
2023-02-24T04:45:31.779Z,12.48
2023-02-24T04:48:02.215Z,15.27
2023-02-24T04:50:33.346Z,15.98
2023-02-24T04:53:08.789Z,16.05
2023-02-24T04:55:40.897Z,18.48
2023-02-24T04:58:12.177Z,17.67
2023-02-24T05:00:41.935Z,17.58
2023-02-24T05:03:13.699Z,17.80
2023-02-24T05:05:51.822Z,16.75
2023-02-24T05:08:22.054Z,15.63
2023-02-24T05:10:52.370Z,15.13
2023-02-24T05:13:26.225Z,18.00
2023-02-24T05:15:56.030Z,16.33
2023-02-24T05:18:24.923Z,13.73
2023-02-24T05:21:12.481Z,14.40
2023-02-24T05:23:44.297Z,13.35
2023-02-24T05:26:16.808Z,13.75
2023-02-24T05:28:49.046Z,14.05
2023-02-24T05:31:19.879Z,16.30
2023-02-24T05:33:50.483Z,17.40
2023-02-24T05:36:20.141Z,16.75
2023-02-24T05:38:56.542Z,18.40
2023-02-24T05:41:32.517Z,18.80
2023-02-24T05:44:04.715Z,15.38
2023-02-24T05:46:34.877Z,15.90
2023-02-24T05:49:08.635Z,14.52
2023-02-24T05:51:39.088Z,13.63
2023-02-24T05:54:09.536Z,11.63
2023-02-24T05:56:45.135Z,11.35
2023-02-24T05:59:18.258Z,11.48
2023-02-24T06:01:46.646Z,10.95
2023-02-24T06:04:27.840Z,10.65
2023-02-24T06:06:56.140Z,9.80
2023-02-24T06:09:24.310Z,9.18
2023-02-24T06:11:53.911Z,9.77
2023-02-24T06:14:22.727Z,10.32
2023-02-24T06:16:51.022Z,9.73
2023-02-24T06:19:20.641Z,11.57
2023-02-24T06:21:49.170Z,9.68
2023-02-24T06:24:18.565Z,9.88
2023-02-24T06:26:46.949Z,9.73
2023-02-24T06:29:18.243Z,10.13
2023-02-24T06:31:48.639Z,11.05
2023-02-24T06:34:18.371Z,10.07
2023-02-24T06:36:47.005Z,9.85
2023-02-24T06:39:16.973Z,8.65
2023-02-24T06:41:52.849Z,8.98
2023-02-24T06:44:24.298Z,9.57
2023-02-24T06:46:52.624Z,13.55
2023-02-24T06:49:21.289Z,10.63
2023-02-24T06:51:50.306Z,8.90
2023-02-24T06:54:19.110Z,10.27
2023-02-24T06:56:47.832Z,10.57
2023-02-24T06:59:21.846Z,9.80
2023-02-24T07:01:53.915Z,11.50
2023-02-24T07:04:28.247Z,11.75
2023-02-24T07:07:03.230Z,10.07
2023-02-24T07:09:33.232Z,10.50
2023-02-24T07:12:02.960Z,10.48
2023-02-24T07:14:32.040Z,9.95
2023-02-24T07:17:01.921Z,9.02
2023-02-24T07:19:32.554Z,8.75
2023-02-24T07:22:03.492Z,9.07
2023-02-24T07:24:37.155Z,9.40
2023-02-24T07:27:07.191Z,9.15
2023-02-24T07:29:37.684Z,8.63
2023-02-24T07:32:09.673Z,13.00
2023-02-24T07:34:40.101Z,14.32
2023-02-24T07:37:09.552Z,12.98
2023-02-24T07:39:43.026Z,11.40
2023-02-24T07:42:13.780Z,15.55
2023-02-24T07:44:48.992Z,17.60
2023-02-24T07:47:19.175Z,16.90
2023-02-24T07:49:51.202Z,16.75
2023-02-24T07:52:19.540Z,10.65
2023-02-24T07:54:50.683Z,8.07
2023-02-24T07:57:19.061Z,6.82
2023-02-24T07:59:50.081Z,6.50
2023-02-24T08:02:19.691Z,7.95
2023-02-24T08:04:51.517Z,7.72
2023-02-24T08:07:25.667Z,7.82
2023-02-24T08:10:24.216Z,7.35
2023-02-24T08:12:55.630Z,7.63
2023-02-24T08:15:25.035Z,9.63
2023-02-24T08:18:02.466Z,9.30
2023-02-24T08:20:51.300Z,7.70
2023-02-24T08:23:19.731Z,9.57
2023-02-24T08:25:47.956Z,9.00
2023-02-24T08:28:16.300Z,12.18
2023-02-24T08:30:46.499Z,7.25
2023-02-24T08:33:21.195Z,8.93
2023-02-24T08:35:57.913Z,12.23
2023-02-24T08:38:28.429Z,10.35
2023-02-24T08:40:59.290Z,9.77
2023-02-24T08:43:33.406Z,12.00
2023-02-24T08:46:18.360Z,13.05
2023-02-24T08:48:49.977Z,13.82
2023-02-24T08:51:22.821Z,15.60
2023-02-24T08:53:53.717Z,9.80
2023-02-24T08:56:27.577Z,10.52
2023-02-24T08:58:58.490Z,12.88
2023-02-24T09:01:34.639Z,17.98
2023-02-24T09:04:07.502Z,20.35
2023-02-24T09:06:39.734Z,13.98
2023-02-24T09:09:22.464Z,15.63
2023-02-24T09:11:56.090Z,16.15
2023-02-24T09:14:28.753Z,14.68
2023-02-24T09:17:06.180Z,16.90
2023-02-24T09:19:58.017Z,14.73
2023-02-24T09:22:40.865Z,15.20
2023-02-24T09:25:23.949Z,11.70
2023-02-24T09:27:55.750Z,12.35
2023-02-24T09:30:39.287Z,15.77
2023-02-24T09:33:21.133Z,13.38
2023-02-24T09:36:10.759Z,12.38
2023-02-24T09:38:58.338Z,13.45
2023-02-24T09:41:34.065Z,16.05
2023-02-24T09:44:07.843Z,10.77
2023-02-24T09:46:42.315Z,11.82
2023-02-24T09:49:18.014Z,9.88
2023-02-24T09:51:56.735Z,11.95
2023-02-24T09:54:31.788Z,9.15
2023-02-24T09:57:09.252Z,8.85
2023-02-24T10:00:00.893Z,6.10
2023-02-24T10:02:44.333Z,8.23
2023-02-24T10:05:27.264Z,7.68
2023-02-24T10:07:59.214Z,7.85
2023-02-24T10:10:38.856Z,9.02
2023-02-24T10:13:15.321Z,9.30
2023-02-24T10:15:58.993Z,11.18
2023-02-24T10:18:34.110Z,6.00
2023-02-24T10:21:18.164Z,10.13
2023-02-24T10:24:01.780Z,9.40
2023-02-24T10:26:51.298Z,4.78
2023-02-24T10:29:34.531Z,8.82
2023-02-24T10:32:23.475Z,11.05
2023-02-24T10:34:54.782Z,8.60
2023-02-24T10:37:29.501Z,8.15
2023-02-24T10:40:09.777Z,9.57
2023-02-24T10:42:45.760Z,11.02
2023-02-24T10:45:18.287Z,10.15
2023-02-24T10:47:56.675Z,7.13
2023-02-24T10:50:29.781Z,11.27
2023-02-24T10:53:26.512Z,7.40
2023-02-24T10:56:23.422Z,11.63
2023-02-24T10:59:20.562Z,7.15
2023-02-24T11:01:59.210Z,10.18
2023-02-24T11:04:53.830Z,10.05
2023-02-24T11:07:33.357Z,8.80
2023-02-24T11:10:12.081Z,9.40
2023-02-24T11:13:10.660Z,8.15
2023-02-24T11:16:00.874Z,9.60
2023-02-24T11:18:31.071Z,11.23
2023-02-24T11:21:02.136Z,12.10
2023-02-24T11:23:35.657Z,9.82
2023-02-24T11:26:08.264Z,9.50
2023-02-24T11:28:59.519Z,13.13
2023-02-24T11:31:45.933Z,10.57
2023-02-24T11:34:24.585Z,13.38
2023-02-24T11:37:02.728Z,15.55
2023-02-24T11:39:53.530Z,8.82
2023-02-24T11:42:28.047Z,9.25
2023-02-24T11:45:06.577Z,7.68
2023-02-24T11:47:39.881Z,9.15
2023-02-24T11:50:24.895Z,10.30
2023-02-24T11:52:55.405Z,9.48
2023-02-24T11:55:34.999Z,9.02
2023-02-24T11:58:08.492Z,9.70
2023-02-24T12:00:43.164Z,8.18
2023-02-24T12:03:19.290Z,8.88
2023-02-24T12:05:53.746Z,8.10
2023-02-24T12:08:29.263Z,8.63
2023-02-24T12:11:07.025Z,6.82
2023-02-24T12:13:41.269Z,9.52
2023-02-24T12:16:18.459Z,6.88
2023-02-24T12:18:51.458Z,6.75
2023-02-24T12:21:25.158Z,4.03
2023-02-24T12:23:54.636Z,6.13
2023-02-24T12:26:27.249Z,5.97
2023-02-24T12:29:30.139Z,7.00
2023-02-24T12:32:10.790Z,5.18
2023-02-24T12:34:49.958Z,7.32
2023-02-24T12:37:30.824Z,6.68
2023-02-24T12:40:13.737Z,6.85
2023-02-24T12:42:52.545Z,5.97
2023-02-24T12:45:27.660Z,8.10
2023-02-24T12:48:08.045Z,10.52
2023-02-24T12:50:46.805Z,10.00
2023-02-24T12:53:21.618Z,10.57
2023-02-24T12:55:59.177Z,6.65
2023-02-24T12:58:30.144Z,11.00
2023-02-24T13:01:10.318Z,6.07
2023-02-24T13:03:58.905Z,5.25
2023-02-24T13:06:35.338Z,8.27
2023-02-24T13:09:12.552Z,7.80
2023-02-24T13:11:47.187Z,5.90
2023-02-24T13:14:22.264Z,8.82
2023-02-24T13:16:51.517Z,8.68
2023-02-24T13:19:29.016Z,4.55
2023-02-24T13:22:01.928Z,7.57
2023-02-24T13:24:30.550Z,7.95
2023-02-24T13:27:20.368Z,9.25
2023-02-24T13:29:50.845Z,11.55
2023-02-24T13:32:29.587Z,7.43
2023-02-24T13:35:01.196Z,7.97
2023-02-24T13:37:32.245Z,8.48
2023-02-24T13:40:00.436Z,6.65
2023-02-24T13:42:30.587Z,7.97
2023-02-24T13:45:06.267Z,8.60
2023-02-24T13:48:13.058Z,8.55
2023-02-24T13:51:11.432Z,7.25
2023-02-24T13:53:58.782Z,6.70
2023-02-24T13:56:39.225Z,7.97
2023-02-24T13:59:21.798Z,7.20
2023-02-24T14:01:52.514Z,6.85
2023-02-24T14:04:27.841Z,7.07
2023-02-24T14:07:03.153Z,7.60
2023-02-24T14:09:35.057Z,9.00
2023-02-24T14:12:08.277Z,9.52
2023-02-24T14:14:36.797Z,8.13
2023-02-24T14:17:09.571Z,8.73
2023-02-24T14:19:37.798Z,8.52
2023-02-24T14:22:07.390Z,8.48
2023-02-24T14:24:35.548Z,8.35
2023-02-24T14:27:05.471Z,9.00
2023-02-24T14:29:44.067Z,8.85
2023-02-24T14:32:22.099Z,7.78
2023-02-24T14:34:50.803Z,8.25
2023-02-24T14:37:25.955Z,8.18
2023-02-24T14:39:56.756Z,7.85
2023-02-24T14:42:25.647Z,7.18
2023-02-24T14:44:55.966Z,7.57
2023-02-24T14:47:26.025Z,7.97
2023-02-24T14:49:56.900Z,6.20
2023-02-24T14:52:33.182Z,9.57
2023-02-24T14:55:06.378Z,10.15
2023-02-24T14:57:39.637Z,8.05
2023-02-24T15:00:17.355Z,7.22
2023-02-24T15:02:51.623Z,7.97
2023-02-24T15:05:20.192Z,8.13
2023-02-24T15:07:51.786Z,8.50
2023-02-24T15:10:26.402Z,9.77
2023-02-24T15:13:00.719Z,9.43
2023-02-24T15:15:34.157Z,8.45
2023-02-24T15:18:10.476Z,9.85
2023-02-24T15:20:41.985Z,11.40
2023-02-24T15:23:27.242Z,12.18
2023-02-24T15:25:55.592Z,9.57
2023-02-24T15:28:26.766Z,9.50
2023-02-24T15:31:02.812Z,11.75
2023-02-24T15:33:36.308Z,11.80
2023-02-24T15:36:11.209Z,8.48
2023-02-24T15:38:43.763Z,9.13
2023-02-24T15:41:13.498Z,7.32
2023-02-24T15:43:47.756Z,10.57
2023-02-24T15:46:25.175Z,8.82
2023-02-24T15:48:55.547Z,7.03
2023-02-24T15:51:34.966Z,7.07
2023-02-24T15:54:06.998Z,6.45
2023-02-24T15:56:36.491Z,6.13
2023-02-24T15:59:06.000Z,6.03
2023-02-24T16:01:34.929Z,6.55
2023-02-24T16:04:04.669Z,7.18
2023-02-24T16:06:33.959Z,5.53
2023-02-24T16:09:05.234Z,6.60
2023-02-24T16:11:42.050Z,6.45
2023-02-24T16:14:13.980Z,6.32
2023-02-24T16:16:42.419Z,6.78
2023-02-24T16:19:14.546Z,6.68
2023-02-24T16:21:42.997Z,6.05
2023-02-24T16:24:12.250Z,6.72
2023-02-24T16:26:44.191Z,7.55
2023-02-24T16:29:16.309Z,5.53
2023-02-24T16:31:44.765Z,11.23
2023-02-24T16:34:16.542Z,16.90
2023-02-24T16:36:44.961Z,15.30
2023-02-24T16:39:14.939Z,10.32
2023-02-24T16:41:44.602Z,9.40
2023-02-24T16:44:14.210Z,11.70
2023-02-24T16:46:46.166Z,18.83
2023-02-24T16:49:19.486Z,12.77
2023-02-24T16:51:50.477Z,12.32
2023-02-24T16:54:21.820Z,10.07
2023-02-24T16:56:52.691Z,14.27
2023-02-24T16:59:21.169Z,14.60
2023-02-24T17:01:49.606Z,47.30
2023-02-24T17:04:18.114Z,32.90
2023-02-24T17:06:46.438Z,28.25
2023-02-24T17:09:15.654Z,31.77
2023-02-24T17:11:44.508Z,30.27
2023-02-24T17:14:17.164Z,44.47
2023-02-24T17:16:48.418Z,29.38
2023-02-24T17:19:17.744Z,24.08
2023-02-24T17:21:46.953Z,24.77
2023-02-24T17:24:17.470Z,23.80
2023-02-24T17:26:48.766Z,21.88
2023-02-24T17:29:20.325Z,19.65
2023-02-24T17:31:48.662Z,19.30
2023-02-24T17:34:16.962Z,18.08
2023-02-24T17:36:47.223Z,17.20
2023-02-24T17:39:15.529Z,18.63
2023-02-24T17:41:43.682Z,16.33
2023-02-24T17:44:11.867Z,16.98
2023-02-24T17:46:41.494Z,17.33
2023-02-24T17:49:10.059Z,15.98
2023-02-24T17:51:38.244Z,14.10
2023-02-24T17:54:06.789Z,13.23
2023-02-24T17:56:35.110Z,13.05
2023-02-24T17:59:03.287Z,11.57
2023-02-24T18:01:31.595Z,10.23
2023-02-24T18:04:01.244Z,11.55
2023-02-24T18:06:29.564Z,10.73
2023-02-24T18:08:57.734Z,16.70
2023-02-24T18:11:25.954Z,14.23
2023-02-24T18:13:55.197Z,17.77
2023-02-24T18:16:23.886Z,14.88
2023-02-24T18:18:52.821Z,12.73
2023-02-24T18:21:24.024Z,16.45
2023-02-24T18:23:55.026Z,13.43
2023-02-24T18:26:25.582Z,15.95
2023-02-24T18:28:54.438Z,20.33
2023-02-24T18:31:25.377Z,17.95
2023-02-24T18:33:54.083Z,16.42
2023-02-24T18:36:24.306Z,14.10
2023-02-24T18:38:54.988Z,12.00
2023-02-24T18:41:24.369Z,8.45
2023-02-24T18:43:54.468Z,8.50
2023-02-24T18:46:29.425Z,7.65
2023-02-24T18:49:00.824Z,8.60
2023-02-24T18:51:30.718Z,8.57
2023-02-24T18:54:04.626Z,9.07
2023-02-24T18:56:35.669Z,9.70
2023-02-24T18:59:07.624Z,9.52
2023-02-24T19:01:39.603Z,9.25
2023-02-24T19:04:10.818Z,8.45
2023-02-24T19:06:41.525Z,7.35
2023-02-24T19:09:12.244Z,7.53
2023-02-24T19:11:43.611Z,9.05
2023-02-24T19:14:13.876Z,8.65
2023-02-24T19:16:42.845Z,8.48
2023-02-24T19:19:15.130Z,9.20
2023-02-24T19:21:45.898Z,8.88
2023-02-24T19:24:16.421Z,11.10
2023-02-24T19:26:47.386Z,10.20
2023-02-24T19:29:16.311Z,13.50
2023-02-24T19:31:45.733Z,14.13
2023-02-24T19:34:15.737Z,9.85
2023-02-24T19:36:45.306Z,9.90
2023-02-24T19:39:15.394Z,8.23
2023-02-24T19:41:43.623Z,7.32
2023-02-24T19:44:12.052Z,7.22
2023-02-24T19:46:41.461Z,6.88
2023-02-24T19:49:09.658Z,6.75
2023-02-24T19:51:38.174Z,7.07
2023-02-24T19:54:08.823Z,10.18
2023-02-24T19:56:37.755Z,9.95
2023-02-24T19:59:11.203Z,13.25
2023-02-24T20:01:39.469Z,8.38
2023-02-24T20:04:08.433Z,8.98
2023-02-24T20:06:38.255Z,6.43
2023-02-24T20:09:09.835Z,7.50
2023-02-24T20:11:40.530Z,6.03
2023-02-24T20:14:10.418Z,9.40
2023-02-24T20:16:38.963Z,7.63
2023-02-24T20:19:09.363Z,9.07
2023-02-24T20:21:38.510Z,8.40
2023-02-24T20:24:13.230Z,8.80
2023-02-24T20:26:50.067Z,8.40
2023-02-24T20:29:20.623Z,9.82
2023-02-24T20:31:49.781Z,10.82
2023-02-24T20:34:18.196Z,9.27
2023-02-24T20:36:54.054Z,9.90
2023-02-24T20:39:25.179Z,10.52
2023-02-24T20:41:55.800Z,8.85
2023-02-24T20:44:24.610Z,15.75
2023-02-24T20:46:52.910Z,17.45
2023-02-24T20:49:21.216Z,13.93
2023-02-24T20:51:49.703Z,10.52
2023-02-24T20:54:18.254Z,9.55
2023-02-24T20:56:48.540Z,10.88
2023-02-24T20:59:19.117Z,9.65
2023-02-24T21:01:48.970Z,10.50
2023-02-24T21:04:20.118Z,8.25
2023-02-24T21:06:48.956Z,8.30
2023-02-24T21:09:17.525Z,6.30
2023-02-24T21:11:47.178Z,7.40
2023-02-24T21:14:16.898Z,6.78
2023-02-24T21:16:46.817Z,29.05
2023-02-24T21:19:15.122Z,19.73
2023-02-24T21:21:43.311Z,17.65
2023-02-24T21:24:11.561Z,26.48
2023-02-24T21:26:39.750Z,15.75
2023-02-24T21:29:09.530Z,16.70
2023-02-24T21:31:37.942Z,16.77
2023-02-24T21:34:06.896Z,17.38
2023-02-24T21:36:35.073Z,16.88
2023-02-24T21:39:05.153Z,17.15
2023-02-24T21:41:35.552Z,9.18
2023-02-24T21:44:03.882Z,12.52
2023-02-24T21:46:33.501Z,7.75
2023-02-24T21:49:01.884Z,10.77
2023-02-24T21:51:30.405Z,8.57
2023-02-24T21:53:58.951Z,7.32
2023-02-24T21:56:29.150Z,7.65
2023-02-24T21:59:02.111Z,8.18
2023-02-24T22:01:36.567Z,8.18
2023-02-24T22:04:07.831Z,7.50
2023-02-24T22:06:37.950Z,6.93
2023-02-24T22:09:08.078Z,7.20
2023-02-24T22:11:38.077Z,7.68
2023-02-24T22:14:09.274Z,22.33
2023-02-24T22:16:39.497Z,11.38
2023-02-24T22:19:08.359Z,14.35
2023-02-24T22:21:39.557Z,8.07
2023-02-24T22:24:09.299Z,7.20
2023-02-24T22:26:37.606Z,7.55
2023-02-24T22:29:08.930Z,7.10
2023-02-24T22:31:39.543Z,7.38
2023-02-24T22:34:08.812Z,8.63
2023-02-24T22:36:37.768Z,7.47
2023-02-24T22:39:07.195Z,11.75
2023-02-24T22:41:38.163Z,9.63
2023-02-24T22:44:07.285Z,11.88
2023-02-24T22:46:40.198Z,6.57
2023-02-24T22:49:08.471Z,5.57
2023-02-24T22:51:37.048Z,5.03
2023-02-24T22:54:09.038Z,5.77
2023-02-24T22:56:37.844Z,4.75
2023-02-24T22:59:06.078Z,6.30
2023-02-24T23:01:36.334Z,6.45
2023-02-24T23:04:09.181Z,5.68
2023-02-24T23:06:37.796Z,6.47
2023-02-24T23:09:07.541Z,6.55
2023-02-24T23:11:38.616Z,6.53
2023-02-24T23:14:09.919Z,6.85
2023-02-24T23:16:39.196Z,7.95
2023-02-24T23:19:12.879Z,7.57
2023-02-24T23:21:43.007Z,6.55
2023-02-24T23:24:13.844Z,5.47
2023-02-24T23:26:45.644Z,6.50
2023-02-24T23:29:15.968Z,6.53
2023-02-24T23:31:45.714Z,6.50
2023-02-24T23:34:15.973Z,3.75
2023-02-24T23:36:47.846Z,5.88
2023-02-24T23:39:20.373Z,3.92
2023-02-24T23:41:49.436Z,3.33
2023-02-24T23:44:17.706Z,3.90
2023-02-24T23:46:46.591Z,4.00
2023-02-24T23:49:16.214Z,3.72
2023-02-24T23:51:48.990Z,3.85
2023-02-24T23:54:17.958Z,3.25
2023-02-24T23:56:49.722Z,3.88
2023-02-24T23:59:17.920Z,4.43
